createdAt,value
2022-11-03T00:04:18.560Z,101014.94
2022-11-03T00:14:40.071Z,100996.81
2022-11-03T00:25:01.595Z,101011.25
2022-11-03T00:35:23.014Z,100992.66
2022-11-03T00:45:44.412Z,100967.72
2022-11-03T00:56:07.216Z,100952.84
2022-11-03T01:06:47.380Z,100973.28
2022-11-03T01:17:15.310Z,100962.34
2022-11-03T01:27:36.716Z,100959.47
2022-11-03T01:37:58.056Z,100946.34
2022-11-03T01:48:22.529Z,100917.69
2022-11-03T01:58:49.307Z,100896.34
2022-11-03T02:09:11.358Z,100870.31
2022-11-03T02:19:44.364Z,100866.25
2022-11-03T02:30:06.378Z,100863.19
2022-11-03T02:40:37.314Z,100845.91
2022-11-03T02:50:58.810Z,100833.28
2022-11-03T03:01:32.668Z,100805.75
2022-11-03T03:11:56.052Z,100800.22
2022-11-03T03:22:29.058Z,100793.16
2022-11-03T03:32:52.585Z,100780.31
2022-11-03T03:43:14.989Z,100783.22
2022-11-03T03:53:36.414Z,100790.25
2022-11-03T04:03:57.840Z,100781.59
2022-11-03T04:14:37.920Z,100781.44
2022-11-03T04:24:59.999Z,100757.44
2022-11-03T04:35:21.674Z,100754.13
2022-11-03T04:45:47.609Z,100745.28
2022-11-03T04:56:16.992Z,100731.25
2022-11-03T05:06:38.685Z,100729.59
2022-11-03T05:17:02.730Z,100710.25
2022-11-03T05:27:24.693Z,100686.03
2022-11-03T05:37:46.191Z,100677.94
2022-11-03T05:48:18.313Z,100665.09
2022-11-03T05:58:42.785Z,100653.13
2022-11-03T06:09:15.473Z,100637.72
2022-11-03T06:19:42.610Z,100630.72
2022-11-03T06:30:24.084Z,100627.38
2022-11-03T06:40:46.440Z,100627.78
2022-11-03T06:51:17.778Z,100613.75
2022-11-03T07:01:39.332Z,100602.03
2022-11-03T07:12:00.905Z,100592.09
2022-11-03T07:22:23.631Z,100588.59
2022-11-03T07:32:45.145Z,100585.31
2022-11-03T07:43:15.243Z,100576.69
2022-11-03T07:53:39.585Z,100556.09
2022-11-03T08:04:04.900Z,100541.06
2022-11-03T08:14:26.362Z,100526.06
2022-11-03T08:24:47.789Z,100516.25
2022-11-03T08:35:09.416Z,100499.16
2022-11-03T08:45:30.928Z,100494.63
2022-11-03T08:55:53.539Z,100482.38
2022-11-03T09:06:14.989Z,100469.84
2022-11-03T09:16:36.399Z,100462.28
2022-11-03T09:27:02.046Z,100455.34
2022-11-03T09:37:24.112Z,100456.97
2022-11-03T09:47:48.407Z,100447.97
2022-11-03T09:58:16.919Z,100429.66
2022-11-03T10:08:41.866Z,100421.75
2022-11-03T10:19:03.451Z,100416.78
2022-11-03T10:29:27.271Z,100403.25
2022-11-03T10:39:51.623Z,100381.97
2022-11-03T10:50:25.931Z,100360.88
2022-11-03T11:00:47.389Z,100356.50
2022-11-03T11:11:15.435Z,100327.25
2022-11-03T11:21:39.944Z,100304.91
2022-11-03T11:32:36.942Z,100283.22
2022-11-03T11:43:01.419Z,100268.06
2022-11-03T11:53:27.650Z,100259.16
2022-11-03T12:03:56.124Z,100239.84
2022-11-03T12:14:30.654Z,100205.31
2022-11-03T12:24:57.032Z,100185.25
2022-11-03T12:35:18.532Z,100174.53
2022-11-03T12:45:41.330Z,100178.66
2022-11-03T12:56:03.010Z,100152.72
2022-11-03T13:06:24.344Z,100141.41
2022-11-03T13:16:46.119Z,100125.09
2022-11-03T13:27:07.522Z,100101.56
2022-11-03T13:37:29.118Z,100072.47
2022-11-03T13:48:30.035Z,100040.25
2022-11-03T14:09:13.269Z,99984.84
2022-11-03T14:19:41.222Z,99971.25
2022-11-03T14:30:05.251Z,99954.59
2022-11-03T14:40:45.386Z,99946.28
2022-11-03T14:51:06.811Z,99921.22
2022-11-03T15:01:28.411Z,99894.75
2022-11-03T15:11:50.000Z,99870.78
2022-11-03T15:22:11.706Z,99862.56
2022-11-03T15:32:36.430Z,99830.75
2022-11-03T15:43:02.775Z,99806.53
2022-11-03T15:53:24.602Z,99772.97
2022-11-03T16:03:46.102Z,99752.72
2022-11-03T16:14:07.523Z,99759.75
2022-11-03T16:24:34.840Z,99752.16
2022-11-03T16:34:57.044Z,99717.91
2022-11-03T16:45:21.296Z,99719.69
2022-11-03T16:55:46.117Z,99713.50
2022-11-03T17:06:07.627Z,99714.22
2022-11-03T17:16:29.106Z,99699.38
2022-11-03T17:26:58.634Z,99709.81
2022-11-03T17:37:20.814Z,99693.03
2022-11-03T17:47:43.521Z,99675.97
2022-11-03T17:58:05.525Z,99650.13
2022-11-03T18:08:26.998Z,99639.13
2022-11-03T18:18:48.907Z,99626.50
2022-11-03T18:29:10.713Z,99591.41
2022-11-03T18:39:32.066Z,99589.66
2022-11-03T18:49:53.513Z,99580.84
2022-11-03T19:00:21.435Z,99567.66
2022-11-03T19:10:42.958Z,99557.34
2022-11-03T19:21:12.937Z,99538.25
2022-11-03T19:31:38.469Z,99517.66
2022-11-03T19:42:21.230Z,99517.22
2022-11-03T19:52:43.252Z,99490.72
2022-11-03T20:03:04.686Z,99478.91
2022-11-03T20:13:30.159Z,99464.91
2022-11-03T20:23:51.943Z,99456.91
2022-11-03T20:34:13.837Z,99461.75
2022-11-03T20:44:35.203Z,99459.53
2022-11-03T20:54:56.575Z,99453.88
2022-11-03T21:05:22.463Z,99433.56
2022-11-03T21:16:23.640Z,99432.59
2022-11-03T21:26:44.426Z,99422.00
2022-11-03T21:37:05.783Z,99426.44
2022-11-03T21:47:27.306Z,99415.13
2022-11-03T21:57:48.620Z,99411.59
2022-11-03T22:08:10.000Z,99406.09
2022-11-03T22:18:31.319Z,99402.22
2022-11-03T22:29:12.608Z,99391.78
2022-11-03T22:40:06.376Z,99386.03
2022-11-03T22:50:27.692Z,99364.59
2022-11-03T23:00:49.147Z,99370.13
2022-11-03T23:11:17.987Z,99373.81
2022-11-03T23:21:39.812Z,99359.13
2022-11-03T23:32:01.167Z,99363.53
2022-11-03T23:42:22.501Z,99355.03
2022-11-03T23:52:43.831Z,99351.59
